sensor_id;sensor_type;location;lat;lon;timestamp;P1;durP1;ratioP1;P2;durP2;ratioP2
5458;SDS011;2752;49.992;8.422;2022-11-02T00:00:21;17.60;;;4.90;;
5458;SDS011;2752;49.992;8.422;2022-11-02T00:02:48;15.43;;;4.67;;
5458;SDS011;2752;49.992;8.422;2022-11-02T00:05:15;12.20;;;5.07;;
5458;SDS011;2752;49.992;8.422;2022-11-02T00:07:47;12.67;;;5.03;;
5458;SDS011;2752;49.992;8.422;2022-11-02T00:10:15;11.83;;;4.60;;
5458;SDS011;2752;49.992;8.422;2022-11-02T00:12:43;11.20;;;4.95;;
5458;SDS011;2752;49.992;8.422;2022-11-02T00:15:11;13.13;;;4.67;;
5458;SDS011;2752;49.992;8.422;2022-11-02T00:17:38;18.43;;;5.47;;
5458;SDS011;2752;49.992;8.422;2022-11-02T00:20:06;13.87;;;5.73;;
5458;SDS011;2752;49.992;8.422;2022-11-02T00:22:34;13.33;;;5.27;;
5458;SDS011;2752;49.992;8.422;2022-11-02T00:25:01;21.50;;;5.50;;
5458;SDS011;2752;49.992;8.422;2022-11-02T00:27:29;15.10;;;5.40;;
5458;SDS011;2752;49.992;8.422;2022-11-02T00:29:58;11.93;;;4.50;;
5458;SDS011;2752;49.992;8.422;2022-11-02T00:32:25;15.13;;;4.67;;
5458;SDS011;2752;49.992;8.422;2022-11-02T00:34:52;12.77;;;5.70;;
5458;SDS011;2752;49.992;8.422;2022-11-02T00:37:19;17.47;;;6.03;;
5458;SDS011;2752;49.992;8.422;2022-11-02T00:39:46;18.37;;;4.87;;
5458;SDS011;2752;49.992;8.422;2022-11-02T00:42:12;10.27;;;4.37;;
5458;SDS011;2752;49.992;8.422;2022-11-02T00:44:40;19.80;;;5.83;;
5458;SDS011;2752;49.992;8.422;2022-11-02T00:47:08;16.83;;;5.80;;
5458;SDS011;2752;49.992;8.422;2022-11-02T00:49:35;23.57;;;5.57;;
5458;SDS011;2752;49.992;8.422;2022-11-02T00:52:02;16.63;;;4.97;;
5458;SDS011;2752;49.992;8.422;2022-11-02T00:54:29;14.97;;;4.60;;
5458;SDS011;2752;49.992;8.422;2022-11-02T00:56:56;18.37;;;5.00;;
5458;SDS011;2752;49.992;8.422;2022-11-02T00:59:23;13.43;;;5.30;;
5458;SDS011;2752;49.992;8.422;2022-11-02T01:01:50;12.20;;;5.37;;
5458;SDS011;2752;49.992;8.422;2022-11-02T01:04:18;16.20;;;4.70;;
5458;SDS011;2752;49.992;8.422;2022-11-02T01:06:44;17.77;;;5.33;;
5458;SDS011;2752;49.992;8.422;2022-11-02T01:09:12;17.57;;;4.60;;
5458;SDS011;2752;49.992;8.422;2022-11-02T01:11:40;17.40;;;4.77;;
5458;SDS011;2752;49.992;8.422;2022-11-02T01:14:08;15.20;;;4.60;;
5458;SDS011;2752;49.992;8.422;2022-11-02T01:16:35;15.60;;;5.80;;
5458;SDS011;2752;49.992;8.422;2022-11-02T01:19:04;12.53;;;5.20;;
5458;SDS011;2752;49.992;8.422;2022-11-02T01:21:32;22.27;;;4.47;;
5458;SDS011;2752;49.992;8.422;2022-11-02T01:23:58;10.93;;;6.13;;
5458;SDS011;2752;49.992;8.422;2022-11-02T01:26:25;11.03;;;4.90;;
5458;SDS011;2752;49.992;8.422;2022-11-02T01:28:52;17.90;;;5.43;;
5458;SDS011;2752;49.992;8.422;2022-11-02T01:31:19;19.00;;;5.23;;
5458;SDS011;2752;49.992;8.422;2022-11-02T01:33:46;13.50;;;4.90;;
5458;SDS011;2752;49.992;8.422;2022-11-02T01:36:14;20.17;;;7.70;;
5458;SDS011;2752;49.992;8.422;2022-11-02T01:38:46;22.43;;;6.00;;
5458;SDS011;2752;49.992;8.422;2022-11-02T01:41:13;16.87;;;5.80;;
5458;SDS011;2752;49.992;8.422;2022-11-02T01:43:41;18.27;;;4.83;;
5458;SDS011;2752;49.992;8.422;2022-11-02T01:46:12;17.07;;;5.03;;
5458;SDS011;2752;49.992;8.422;2022-11-02T01:48:42;16.70;;;5.60;;
5458;SDS011;2752;49.992;8.422;2022-11-02T01:51:14;10.63;;;5.37;;
5458;SDS011;2752;49.992;8.422;2022-11-02T01:53:46;14.73;;;5.50;;
5458;SDS011;2752;49.992;8.422;2022-11-02T01:56:15;20.77;;;6.20;;
5458;SDS011;2752;49.992;8.422;2022-11-02T01:58:46;11.63;;;4.83;;
5458;SDS011;2752;49.992;8.422;2022-11-02T02:01:17;16.70;;;5.80;;
5458;SDS011;2752;49.992;8.422;2022-11-02T02:03:43;13.03;;;5.40;;
5458;SDS011;2752;49.992;8.422;2022-11-02T02:06:12;24.25;;;5.15;;
5458;SDS011;2752;49.992;8.422;2022-11-02T02:08:42;20.50;;;5.07;;
5458;SDS011;2752;49.992;8.422;2022-11-02T02:11:28;11.70;;;4.93;;
5458;SDS011;2752;49.992;8.422;2022-11-02T02:13:57;13.97;;;4.83;;
5458;SDS011;2752;49.992;8.422;2022-11-02T02:16:30;13.63;;;4.90;;
5458;SDS011;2752;49.992;8.422;2022-11-02T02:19:14;18.90;;;5.20;;
5458;SDS011;2752;49.992;8.422;2022-11-02T02:21:52;12.90;;;4.77;;
5458;SDS011;2752;49.992;8.422;2022-11-02T02:24:38;14.67;;;4.97;;
5458;SDS011;2752;49.992;8.422;2022-11-02T02:27:14;10.50;;;4.63;;
5458;SDS011;2752;49.992;8.422;2022-11-02T02:29:49;17.87;;;5.20;;
5458;SDS011;2752;49.992;8.422;2022-11-02T02:32:21;12.60;;;4.33;;
5458;SDS011;2752;49.992;8.422;2022-11-02T02:34:54;10.90;;;4.83;;
5458;SDS011;2752;49.992;8.422;2022-11-02T02:37:25;10.77;;;4.10;;
5458;SDS011;2752;49.992;8.422;2022-11-02T02:39:56;8.67;;;4.20;;
5458;SDS011;2752;49.992;8.422;2022-11-02T02:42:29;16.90;;;5.70;;
5458;SDS011;2752;49.992;8.422;2022-11-02T02:45:02;11.07;;;4.53;;
5458;SDS011;2752;49.992;8.422;2022-11-02T02:47:35;16.33;;;5.00;;
5458;SDS011;2752;49.992;8.422;2022-11-02T02:50:10;9.57;;;4.10;;
5458;SDS011;2752;49.992;8.422;2022-11-02T02:52:41;14.60;;;4.77;;
5458;SDS011;2752;49.992;8.422;2022-11-02T02:55:12;14.20;;;4.03;;
5458;SDS011;2752;49.992;8.422;2022-11-02T02:57:41;17.63;;;4.73;;
5458;SDS011;2752;49.992;8.422;2022-11-02T03:00:12;11.57;;;4.90;;
5458;SDS011;2752;49.992;8.422;2022-11-02T03:02:41;11.87;;;4.53;;
5458;SDS011;2752;49.992;8.422;2022-11-02T03:05:25;12.50;;;4.50;;
5458;SDS011;2752;49.992;8.422;2022-11-02T03:07:54;17.57;;;4.77;;
5458;SDS011;2752;49.992;8.422;2022-11-02T03:10:24;11.50;;;3.47;;
5458;SDS011;2752;49.992;8.422;2022-11-02T03:12:59;13.17;;;3.90;;
5458;SDS011;2752;49.992;8.422;2022-11-02T03:15:39;10.87;;;3.73;;
5458;SDS011;2752;49.992;8.422;2022-11-02T03:18:09;11.83;;;3.60;;
5458;SDS011;2752;49.992;8.422;2022-11-02T03:20:46;10.10;;;4.23;;
5458;SDS011;2752;49.992;8.422;2022-11-02T03:23:21;16.50;;;5.20;;
5458;SDS011;2752;49.992;8.422;2022-11-02T03:25:54;15.60;;;3.57;;
5458;SDS011;2752;49.992;8.422;2022-11-02T03:28:30;13.83;;;3.93;;
5458;SDS011;2752;49.992;8.422;2022-11-02T03:31:08;15.63;;;4.10;;
5458;SDS011;2752;49.992;8.422;2022-11-02T03:33:40;5.70;;;2.93;;
5458;SDS011;2752;49.992;8.422;2022-11-02T03:36:11;16.87;;;4.20;;
5458;SDS011;2752;49.992;8.422;2022-11-02T03:38:42;17.07;;;5.77;;
5458;SDS011;2752;49.992;8.422;2022-11-02T03:41:12;13.33;;;3.50;;
5458;SDS011;2752;49.992;8.422;2022-11-02T03:43:41;10.77;;;3.50;;
5458;SDS011;2752;49.992;8.422;2022-11-02T03:46:12;8.67;;;3.83;;
5458;SDS011;2752;49.992;8.422;2022-11-02T03:48:41;8.33;;;3.70;;
5458;SDS011;2752;49.992;8.422;2022-11-02T03:51:12;9.67;;;3.70;;
5458;SDS011;2752;49.992;8.422;2022-11-02T03:53:43;13.50;;;3.90;;
5458;SDS011;2752;49.992;8.422;2022-11-02T03:56:16;20.47;;;4.53;;
5458;SDS011;2752;49.992;8.422;2022-11-02T03:58:46;15.80;;;5.37;;
5458;SDS011;2752;49.992;8.422;2022-11-02T04:01:14;14.60;;;5.23;;
5458;SDS011;2752;49.992;8.422;2022-11-02T04:03:43;11.83;;;3.20;;
5458;SDS011;2752;49.992;8.422;2022-11-02T04:06:11;12.53;;;3.33;;
5458;SDS011;2752;49.992;8.422;2022-11-02T04:08:38;17.40;;;4.60;;
5458;SDS011;2752;49.992;8.422;2022-11-02T04:11:07;14.33;;;3.57;;
5458;SDS011;2752;49.992;8.422;2022-11-02T04:13:51;12.77;;;3.30;;
5458;SDS011;2752;49.992;8.422;2022-11-02T04:16:37;20.53;;;3.80;;
5458;SDS011;2752;49.992;8.422;2022-11-02T04:19:03;14.27;;;2.83;;
5458;SDS011;2752;49.992;8.422;2022-11-02T04:21:48;5.10;;;2.37;;
5458;SDS011;2752;49.992;8.422;2022-11-02T04:24:29;8.20;;;3.00;;
5458;SDS011;2752;49.992;8.422;2022-11-02T04:27:10;14.70;;;3.00;;
5458;SDS011;2752;49.992;8.422;2022-11-02T04:29:36;10.50;;;2.80;;
5458;SDS011;2752;49.992;8.422;2022-11-02T04:32:05;11.43;;;3.43;;
5458;SDS011;2752;49.992;8.422;2022-11-02T04:34:31;10.50;;;3.50;;
5458;SDS011;2752;49.992;8.422;2022-11-02T04:36:57;9.83;;;3.10;;
5458;SDS011;2752;49.992;8.422;2022-11-02T04:39:24;10.00;;;3.67;;
5458;SDS011;2752;49.992;8.422;2022-11-02T04:41:49;9.30;;;3.30;;
5458;SDS011;2752;49.992;8.422;2022-11-02T04:44:16;12.77;;;3.53;;
5458;SDS011;2752;49.992;8.422;2022-11-02T04:46:43;12.67;;;3.00;;
5458;SDS011;2752;49.992;8.422;2022-11-02T04:49:11;11.10;;;3.03;;
5458;SDS011;2752;49.992;8.422;2022-11-02T04:51:38;6.93;;;2.83;;
5458;SDS011;2752;49.992;8.422;2022-11-02T04:54:05;9.03;;;3.10;;
5458;SDS011;2752;49.992;8.422;2022-11-02T04:56:32;16.93;;;4.27;;
5458;SDS011;2752;49.992;8.422;2022-11-02T04:58:59;9.33;;;2.30;;
5458;SDS011;2752;49.992;8.422;2022-11-02T05:01:26;9.73;;;2.40;;
5458;SDS011;2752;49.992;8.422;2022-11-02T05:03:55;13.63;;;3.27;;
5458;SDS011;2752;49.992;8.422;2022-11-02T05:06:23;8.63;;;2.80;;
5458;SDS011;2752;49.992;8.422;2022-11-02T05:08:50;7.43;;;3.87;;
5458;SDS011;2752;49.992;8.422;2022-11-02T05:11:17;13.60;;;3.30;;
5458;SDS011;2752;49.992;8.422;2022-11-02T05:13:44;13.00;;;3.70;;
5458;SDS011;2752;49.992;8.422;2022-11-02T05:16:11;9.67;;;3.23;;
5458;SDS011;2752;49.992;8.422;2022-11-02T05:18:39;14.03;;;4.23;;
5458;SDS011;2752;49.992;8.422;2022-11-02T05:21:07;24.63;;;4.73;;
5458;SDS011;2752;49.992;8.422;2022-11-02T05:23:36;14.80;;;3.90;;
5458;SDS011;2752;49.992;8.422;2022-11-02T05:26:04;11.23;;;3.47;;
5458;SDS011;2752;49.992;8.422;2022-11-02T05:28:32;12.63;;;3.60;;
5458;SDS011;2752;49.992;8.422;2022-11-02T05:30:59;15.43;;;3.97;;
5458;SDS011;2752;49.992;8.422;2022-11-02T05:33:29;13.30;;;3.63;;
5458;SDS011;2752;49.992;8.422;2022-11-02T05:35:56;10.67;;;3.73;;
5458;SDS011;2752;49.992;8.422;2022-11-02T05:38:24;11.67;;;3.73;;
5458;SDS011;2752;49.992;8.422;2022-11-02T05:40:53;11.87;;;3.90;;
5458;SDS011;2752;49.992;8.422;2022-11-02T05:43:20;11.43;;;3.73;;
5458;SDS011;2752;49.992;8.422;2022-11-02T05:45:51;12.40;;;3.97;;
5458;SDS011;2752;49.992;8.422;2022-11-02T05:48:19;15.13;;;3.70;;
5458;SDS011;2752;49.992;8.422;2022-11-02T05:50:46;12.67;;;3.70;;
5458;SDS011;2752;49.992;8.422;2022-11-02T05:53:13;11.80;;;2.60;;
5458;SDS011;2752;49.992;8.422;2022-11-02T05:55:40;9.90;;;3.63;;
5458;SDS011;2752;49.992;8.422;2022-11-02T05:58:08;15.80;;;3.40;;
5458;SDS011;2752;49.992;8.422;2022-11-02T06:00:35;9.97;;;3.30;;
5458;SDS011;2752;49.992;8.422;2022-11-02T06:03:02;15.90;;;4.17;;
5458;SDS011;2752;49.992;8.422;2022-11-02T06:05:28;16.20;;;3.37;;
5458;SDS011;2752;49.992;8.422;2022-11-02T06:07:58;7.53;;;3.27;;
5458;SDS011;2752;49.992;8.422;2022-11-02T06:10:25;10.87;;;3.60;;
5458;SDS011;2752;49.992;8.422;2022-11-02T06:12:55;6.20;;;3.10;;
5458;SDS011;2752;49.992;8.422;2022-11-02T06:15:24;13.23;;;3.33;;
5458;SDS011;2752;49.992;8.422;2022-11-02T06:17:51;9.53;;;3.40;;
5458;SDS011;2752;49.992;8.422;2022-11-02T06:20:17;10.80;;;3.37;;
5458;SDS011;2752;49.992;8.422;2022-11-02T06:22:45;13.37;;;3.67;;
5458;SDS011;2752;49.992;8.422;2022-11-02T06:25:12;12.73;;;3.63;;
5458;SDS011;2752;49.992;8.422;2022-11-02T06:27:40;14.13;;;3.67;;
5458;SDS011;2752;49.992;8.422;2022-11-02T06:30:07;14.13;;;3.90;;
5458;SDS011;2752;49.992;8.422;2022-11-02T06:32:36;14.43;;;3.60;;
5458;SDS011;2752;49.992;8.422;2022-11-02T06:35:03;14.97;;;3.83;;
5458;SDS011;2752;49.992;8.422;2022-11-02T06:37:31;26.40;;;5.20;;
5458;SDS011;2752;49.992;8.422;2022-11-02T06:39:59;15.60;;;4.80;;
5458;SDS011;2752;49.992;8.422;2022-11-02T06:42:26;19.03;;;4.80;;
5458;SDS011;2752;49.992;8.422;2022-11-02T06:44:53;15.40;;;5.50;;
5458;SDS011;2752;49.992;8.422;2022-11-02T06:47:27;28.80;;;6.40;;
5458;SDS011;2752;49.992;8.422;2022-11-02T06:49:56;27.67;;;5.30;;
5458;SDS011;2752;49.992;8.422;2022-11-02T06:52:23;26.33;;;6.27;;
5458;SDS011;2752;49.992;8.422;2022-11-02T06:54:50;18.23;;;5.67;;
5458;SDS011;2752;49.992;8.422;2022-11-02T06:57:16;11.83;;;4.83;;
5458;SDS011;2752;49.992;8.422;2022-11-02T06:59:43;29.50;;;5.87;;
5458;SDS011;2752;49.992;8.422;2022-11-02T07:02:10;14.33;;;4.67;;
5458;SDS011;2752;49.992;8.422;2022-11-02T07:04:36;25.30;;;4.90;;
5458;SDS011;2752;49.992;8.422;2022-11-02T07:07:04;24.87;;;5.03;;
5458;SDS011;2752;49.992;8.422;2022-11-02T07:09:31;20.27;;;7.07;;
5458;SDS011;2752;49.992;8.422;2022-11-02T07:11:58;26.30;;;6.30;;
5458;SDS011;2752;49.992;8.422;2022-11-02T07:14:24;25.23;;;5.97;;
5458;SDS011;2752;49.992;8.422;2022-11-02T07:16:51;24.17;;;6.93;;
5458;SDS011;2752;49.992;8.422;2022-11-02T07:19:18;14.43;;;4.50;;
5458;SDS011;2752;49.992;8.422;2022-11-02T07:21:45;14.10;;;5.67;;
5458;SDS011;2752;49.992;8.422;2022-11-02T07:24:13;20.47;;;5.70;;
5458;SDS011;2752;49.992;8.422;2022-11-02T07:26:39;15.27;;;5.47;;
5458;SDS011;2752;49.992;8.422;2022-11-02T07:29:06;10.23;;;3.70;;
5458;SDS011;2752;49.992;8.422;2022-11-02T07:31:33;24.90;;;4.73;;
5458;SDS011;2752;49.992;8.422;2022-11-02T07:33:59;14.73;;;5.20;;
5458;SDS011;2752;49.992;8.422;2022-11-02T07:36:26;12.00;;;3.90;;
5458;SDS011;2752;49.992;8.422;2022-11-02T07:38:53;20.50;;;3.23;;
5458;SDS011;2752;49.992;8.422;2022-11-02T07:41:21;11.80;;;3.90;;
5458;SDS011;2752;49.992;8.422;2022-11-02T07:43:47;12.00;;;3.57;;
5458;SDS011;2752;49.992;8.422;2022-11-02T07:46:15;11.97;;;4.00;;
5458;SDS011;2752;49.992;8.422;2022-11-02T07:48:42;16.10;;;3.43;;
5458;SDS011;2752;49.992;8.422;2022-11-02T07:51:09;12.10;;;3.17;;
5458;SDS011;2752;49.992;8.422;2022-11-02T07:53:36;13.90;;;2.87;;
5458;SDS011;2752;49.992;8.422;2022-11-02T07:56:03;14.57;;;2.77;;
5458;SDS011;2752;49.992;8.422;2022-11-02T07:58:31;15.00;;;3.07;;
5458;SDS011;2752;49.992;8.422;2022-11-02T08:00:59;29.77;;;3.30;;
5458;SDS011;2752;49.992;8.422;2022-11-02T08:03:27;8.70;;;2.67;;
5458;SDS011;2752;49.992;8.422;2022-11-02T08:05:54;10.23;;;2.33;;
5458;SDS011;2752;49.992;8.422;2022-11-02T08:08:21;13.70;;;2.97;;
5458;SDS011;2752;49.992;8.422;2022-11-02T08:10:49;6.70;;;2.53;;
5458;SDS011;2752;49.992;8.422;2022-11-02T08:13:17;9.40;;;2.83;;
5458;SDS011;2752;49.992;8.422;2022-11-02T08:15:48;9.97;;;2.70;;
5458;SDS011;2752;49.992;8.422;2022-11-02T08:18:16;27.40;;;3.53;;
5458;SDS011;2752;49.992;8.422;2022-11-02T08:20:46;24.93;;;2.40;;
5458;SDS011;2752;49.992;8.422;2022-11-02T08:23:13;13.53;;;3.70;;
5458;SDS011;2752;49.992;8.422;2022-11-02T08:25:40;7.03;;;2.00;;
5458;SDS011;2752;49.992;8.422;2022-11-02T08:28:10;5.50;;;1.77;;
5458;SDS011;2752;49.992;8.422;2022-11-02T08:30:39;6.33;;;1.90;;
5458;SDS011;2752;49.992;8.422;2022-11-02T08:33:09;18.83;;;2.87;;
5458;SDS011;2752;49.992;8.422;2022-11-02T08:35:39;10.60;;;2.47;;
5458;SDS011;2752;49.992;8.422;2022-11-02T08:38:06;7.53;;;3.13;;
5458;SDS011;2752;49.992;8.422;2022-11-02T08:40:34;17.40;;;3.60;;
5458;SDS011;2752;49.992;8.422;2022-11-02T08:43:01;32.03;;;3.00;;
5458;SDS011;2752;49.992;8.422;2022-11-02T08:45:30;13.77;;;2.57;;
5458;SDS011;2752;49.992;8.422;2022-11-02T08:47:57;6.60;;;2.20;;
5458;SDS011;2752;49.992;8.422;2022-11-02T08:50:26;11.77;;;2.40;;
5458;SDS011;2752;49.992;8.422;2022-11-02T08:52:53;29.60;;;2.80;;
5458;SDS011;2752;49.992;8.422;2022-11-02T08:55:20;10.60;;;2.30;;
5458;SDS011;2752;49.992;8.422;2022-11-02T08:57:47;15.53;;;2.70;;
5458;SDS011;2752;49.992;8.422;2022-11-02T09:00:15;15.60;;;2.43;;
5458;SDS011;2752;49.992;8.422;2022-11-02T09:02:43;11.33;;;2.60;;
5458;SDS011;2752;49.992;8.422;2022-11-02T09:05:10;6.47;;;1.57;;
5458;SDS011;2752;49.992;8.422;2022-11-02T09:07:38;11.10;;;2.20;;
5458;SDS011;2752;49.992;8.422;2022-11-02T09:10:04;11.10;;;2.60;;
5458;SDS011;2752;49.992;8.422;2022-11-02T09:12:32;10.20;;;2.10;;
5458;SDS011;2752;49.992;8.422;2022-11-02T09:14:59;12.07;;;2.10;;
5458;SDS011;2752;49.992;8.422;2022-11-02T09:17:25;9.20;;;2.17;;
5458;SDS011;2752;49.992;8.422;2022-11-02T09:19:53;8.70;;;1.80;;
5458;SDS011;2752;49.992;8.422;2022-11-02T09:22:20;12.53;;;2.20;;
5458;SDS011;2752;49.992;8.422;2022-11-02T09:24:48;11.80;;;1.97;;
5458;SDS011;2752;49.992;8.422;2022-11-02T09:27:15;16.60;;;3.53;;
5458;SDS011;2752;49.992;8.422;2022-11-02T09:29:41;19.77;;;2.80;;
5458;SDS011;2752;49.992;8.422;2022-11-02T09:32:08;8.67;;;2.17;;
5458;SDS011;2752;49.992;8.422;2022-11-02T09:34:35;9.03;;;2.47;;
5458;SDS011;2752;49.992;8.422;2022-11-02T09:37:01;12.10;;;3.13;;
5458;SDS011;2752;49.992;8.422;2022-11-02T09:39:28;6.23;;;1.40;;
5458;SDS011;2752;49.992;8.422;2022-11-02T09:42:00;10.63;;;2.17;;
5458;SDS011;2752;49.992;8.422;2022-11-02T09:44:34;10.73;;;2.40;;
5458;SDS011;2752;49.992;8.422;2022-11-02T09:47:07;9.40;;;2.13;;
5458;SDS011;2752;49.992;8.422;2022-11-02T09:49:36;10.90;;;2.70;;
5458;SDS011;2752;49.992;8.422;2022-11-02T09:52:04;16.73;;;2.90;;
5458;SDS011;2752;49.992;8.422;2022-11-02T09:54:39;8.53;;;2.47;;
5458;SDS011;2752;49.992;8.422;2022-11-02T09:57:13;13.43;;;4.00;;
5458;SDS011;2752;49.992;8.422;2022-11-02T09:59:42;7.23;;;1.90;;
5458;SDS011;2752;49.992;8.422;2022-11-02T10:02:10;13.13;;;1.90;;
5458;SDS011;2752;49.992;8.422;2022-11-02T10:04:57;10.03;;;1.90;;
5458;SDS011;2752;49.992;8.422;2022-11-02T10:07:52;10.20;;;2.60;;
5458;SDS011;2752;49.992;8.422;2022-11-02T10:10:31;6.47;;;1.83;;
5458;SDS011;2752;49.992;8.422;2022-11-02T10:13:05;13.87;;;1.93;;
5458;SDS011;2752;49.992;8.422;2022-11-02T10:15:44;9.87;;;1.90;;
5458;SDS011;2752;49.992;8.422;2022-11-02T10:18:15;14.17;;;2.43;;
5458;SDS011;2752;49.992;8.422;2022-11-02T10:20:45;11.53;;;2.53;;
5458;SDS011;2752;49.992;8.422;2022-11-02T10:23:14;6.47;;;1.53;;
5458;SDS011;2752;49.992;8.422;2022-11-02T10:25:45;11.70;;;1.50;;
5458;SDS011;2752;49.992;8.422;2022-11-02T10:28:15;17.40;;;2.10;;
5458;SDS011;2752;49.992;8.422;2022-11-02T10:30:46;27.83;;;2.30;;
5458;SDS011;2752;49.992;8.422;2022-11-02T10:33:13;17.90;;;2.77;;
5458;SDS011;2752;49.992;8.422;2022-11-02T10:35:45;8.73;;;2.30;;
5458;SDS011;2752;49.992;8.422;2022-11-02T10:38:19;16.53;;;2.60;;
5458;SDS011;2752;49.992;8.422;2022-11-02T10:41:11;9.40;;;1.37;;
5458;SDS011;2752;49.992;8.422;2022-11-02T10:43:51;8.00;;;1.30;;
5458;SDS011;2752;49.992;8.422;2022-11-02T10:46:39;11.67;;;2.30;;
5458;SDS011;2752;49.992;8.422;2022-11-02T10:49:16;6.83;;;1.47;;
5458;SDS011;2752;49.992;8.422;2022-11-02T10:51:56;8.00;;;1.57;;
5458;SDS011;2752;49.992;8.422;2022-11-02T10:54:23;12.40;;;2.40;;
5458;SDS011;2752;49.992;8.422;2022-11-02T10:56:51;8.40;;;2.10;;
5458;SDS011;2752;49.992;8.422;2022-11-02T10:59:19;14.30;;;2.07;;
5458;SDS011;2752;49.992;8.422;2022-11-02T11:02:02;15.67;;;3.10;;
5458;SDS011;2752;49.992;8.422;2022-11-02T11:04:31;12.80;;;2.40;;
5458;SDS011;2752;49.992;8.422;2022-11-02T11:07:03;11.87;;;1.80;;
5458;SDS011;2752;49.992;8.422;2022-11-02T11:09:32;8.13;;;2.10;;
5458;SDS011;2752;49.992;8.422;2022-11-02T11:12:04;13.73;;;3.47;;
5458;SDS011;2752;49.992;8.422;2022-11-02T11:14:45;8.03;;;2.70;;
5458;SDS011;2752;49.992;8.422;2022-11-02T11:17:15;13.07;;;2.33;;
5458;SDS011;2752;49.992;8.422;2022-11-02T11:19:46;13.20;;;1.63;;
5458;SDS011;2752;49.992;8.422;2022-11-02T11:22:22;13.43;;;2.43;;
5458;SDS011;2752;49.992;8.422;2022-11-02T11:24:51;13.17;;;2.00;;
5458;SDS011;2752;49.992;8.422;2022-11-02T11:27:18;6.70;;;1.33;;
5458;SDS011;2752;49.992;8.422;2022-11-02T11:29:48;14.33;;;1.93;;
5458;SDS011;2752;49.992;8.422;2022-11-02T11:32:20;16.23;;;2.20;;
5458;SDS011;2752;49.992;8.422;2022-11-02T11:34:52;15.13;;;2.10;;
5458;SDS011;2752;49.992;8.422;2022-11-02T11:37:22;9.77;;;2.07;;
5458;SDS011;2752;49.992;8.422;2022-11-02T11:39:50;5.20;;;1.63;;
5458;SDS011;2752;49.992;8.422;2022-11-02T11:42:21;6.83;;;1.57;;
5458;SDS011;2752;49.992;8.422;2022-11-02T11:44:52;5.87;;;1.70;;
5458;SDS011;2752;49.992;8.422;2022-11-02T11:47:23;10.40;;;2.50;;
5458;SDS011;2752;49.992;8.422;2022-11-02T11:49:51;5.70;;;1.60;;
5458;SDS011;2752;49.992;8.422;2022-11-02T11:52:20;8.60;;;1.30;;
5458;SDS011;2752;49.992;8.422;2022-11-02T11:54:53;8.57;;;1.80;;
5458;SDS011;2752;49.992;8.422;2022-11-02T11:57:26;8.43;;;1.87;;
5458;SDS011;2752;49.992;8.422;2022-11-02T11:59:56;25.00;;;2.70;;
5458;SDS011;2752;49.992;8.422;2022-11-02T12:02:27;12.57;;;1.90;;
5458;SDS011;2752;49.992;8.422;2022-11-02T12:04:59;12.73;;;1.90;;
5458;SDS011;2752;49.992;8.422;2022-11-02T12:10:39;15.93;;;2.40;;
5458;SDS011;2752;49.992;8.422;2022-11-02T12:13:20;10.53;;;1.77;;
5458;SDS011;2752;49.992;8.422;2022-11-02T12:16:02;7.97;;;2.87;;
5458;SDS011;2752;49.992;8.422;2022-11-02T12:18:43;7.00;;;1.60;;
5458;SDS011;2752;49.992;8.422;2022-11-02T12:21:28;9.97;;;1.90;;
5458;SDS011;2752;49.992;8.422;2022-11-02T12:24:11;10.23;;;2.07;;
5458;SDS011;2752;49.992;8.422;2022-11-02T12:26:48;13.67;;;2.50;;
5458;SDS011;2752;49.992;8.422;2022-11-02T12:29:28;16.83;;;1.83;;
5458;SDS011;2752;49.992;8.422;2022-11-02T12:32:07;10.57;;;2.27;;
5458;SDS011;2752;49.992;8.422;2022-11-02T12:34:50;11.70;;;1.93;;
5458;SDS011;2752;49.992;8.422;2022-11-02T12:37:34;8.07;;;1.80;;
5458;SDS011;2752;49.992;8.422;2022-11-02T12:40:16;7.93;;;2.40;;
5458;SDS011;2752;49.992;8.422;2022-11-02T12:42:52;6.50;;;1.40;;
5458;SDS011;2752;49.992;8.422;2022-11-02T12:45:30;14.70;;;2.37;;
5458;SDS011;2752;49.992;8.422;2022-11-02T12:48:06;8.23;;;2.63;;
5458;SDS011;2752;49.992;8.422;2022-11-02T12:50:48;10.23;;;2.67;;
5458;SDS011;2752;49.992;8.422;2022-11-02T12:53:26;10.77;;;1.80;;
5458;SDS011;2752;49.992;8.422;2022-11-02T12:56:02;8.50;;;1.57;;
5458;SDS011;2752;49.992;8.422;2022-11-02T12:58:32;11.87;;;2.40;;
5458;SDS011;2752;49.992;8.422;2022-11-02T13:01:04;4.10;;;1.60;;
5458;SDS011;2752;49.992;8.422;2022-11-02T13:03:38;12.93;;;2.03;;
5458;SDS011;2752;49.992;8.422;2022-11-02T13:06:14;10.63;;;1.57;;
5458;SDS011;2752;49.992;8.422;2022-11-02T13:08:50;6.17;;;1.30;;
5458;SDS011;2752;49.992;8.422;2022-11-02T13:11:21;10.40;;;2.10;;
5458;SDS011;2752;49.992;8.422;2022-11-02T13:13:54;4.63;;;1.50;;
5458;SDS011;2752;49.992;8.422;2022-11-02T13:16:24;11.10;;;1.83;;
5458;SDS011;2752;49.992;8.422;2022-11-02T13:18:59;6.97;;;1.47;;
5458;SDS011;2752;49.992;8.422;2022-11-02T13:21:29;10.93;;;1.80;;
5458;SDS011;2752;49.992;8.422;2022-11-02T13:24:01;9.83;;;2.00;;
5458;SDS011;2752;49.992;8.422;2022-11-02T13:26:31;15.07;;;1.87;;
5458;SDS011;2752;49.992;8.422;2022-11-02T13:29:03;7.90;;;1.70;;
5458;SDS011;2752;49.992;8.422;2022-11-02T13:31:33;9.50;;;1.90;;
5458;SDS011;2752;49.992;8.422;2022-11-02T13:34:04;7.70;;;1.90;;
5458;SDS011;2752;49.992;8.422;2022-11-02T13:36:36;8.30;;;1.60;;
5458;SDS011;2752;49.992;8.422;2022-11-02T13:39:05;14.33;;;2.23;;
5458;SDS011;2752;49.992;8.422;2022-11-02T13:41:38;6.83;;;2.33;;
5458;SDS011;2752;49.992;8.422;2022-11-02T13:47:43;10.17;;;1.90;;
5458;SDS011;2752;49.992;8.422;2022-11-02T13:50:21;10.50;;;1.80;;
5458;SDS011;2752;49.992;8.422;2022-11-02T13:52:51;8.03;;;1.87;;
5458;SDS011;2752;49.992;8.422;2022-11-02T13:55:22;16.83;;;2.53;;
5458;SDS011;2752;49.992;8.422;2022-11-02T13:57:53;7.47;;;3.00;;
5458;SDS011;2752;49.992;8.422;2022-11-02T14:00:25;9.60;;;2.07;;
5458;SDS011;2752;49.992;8.422;2022-11-02T14:02:57;7.57;;;1.67;;
5458;SDS011;2752;49.992;8.422;2022-11-02T14:05:29;5.33;;;1.67;;
5458;SDS011;2752;49.992;8.422;2022-11-02T14:07:58;14.20;;;1.63;;
5458;SDS011;2752;49.992;8.422;2022-11-02T14:10:26;6.33;;;1.60;;
5458;SDS011;2752;49.992;8.422;2022-11-02T14:12:54;13.90;;;1.77;;
5458;SDS011;2752;49.992;8.422;2022-11-02T14:18:27;14.07;;;2.53;;
5458;SDS011;2752;49.992;8.422;2022-11-02T14:20:57;12.70;;;2.10;;
5458;SDS011;2752;49.992;8.422;2022-11-02T14:23:45;5.43;;;1.43;;
5458;SDS011;2752;49.992;8.422;2022-11-02T14:26:28;6.73;;;1.70;;
5458;SDS011;2752;49.992;8.422;2022-11-02T14:28:56;9.33;;;1.70;;
5458;SDS011;2752;49.992;8.422;2022-11-02T14:31:32;5.67;;;1.33;;
5458;SDS011;2752;49.992;8.422;2022-11-02T14:34:13;4.10;;;1.50;;
5458;SDS011;2752;49.992;8.422;2022-11-02T14:36:57;5.40;;;1.20;;
5458;SDS011;2752;49.992;8.422;2022-11-02T14:39:37;7.13;;;1.73;;
5458;SDS011;2752;49.992;8.422;2022-11-02T14:42:16;8.40;;;1.40;;
5458;SDS011;2752;49.992;8.422;2022-11-02T14:48:11;9.43;;;1.83;;
5458;SDS011;2752;49.992;8.422;2022-11-02T14:50:40;5.40;;;1.17;;
5458;SDS011;2752;49.992;8.422;2022-11-02T14:53:15;8.30;;;1.80;;
5458;SDS011;2752;49.992;8.422;2022-11-02T14:55:52;5.87;;;1.83;;
5458;SDS011;2752;49.992;8.422;2022-11-02T14:58:21;6.47;;;1.50;;
5458;SDS011;2752;49.992;8.422;2022-11-02T15:00:54;4.63;;;2.03;;
5458;SDS011;2752;49.992;8.422;2022-11-02T15:03:27;8.13;;;1.70;;
5458;SDS011;2752;49.992;8.422;2022-11-02T15:05:58;8.13;;;1.80;;
5458;SDS011;2752;49.992;8.422;2022-11-02T15:08:26;10.87;;;2.60;;
5458;SDS011;2752;49.992;8.422;2022-11-02T15:10:57;7.00;;;1.90;;
5458;SDS011;2752;49.992;8.422;2022-11-02T15:16:20;13.13;;;1.97;;
5458;SDS011;2752;49.992;8.422;2022-11-02T15:18:47;13.90;;;2.00;;
5458;SDS011;2752;49.992;8.422;2022-11-02T15:21:23;20.10;;;2.67;;
5458;SDS011;2752;49.992;8.422;2022-11-02T15:26:44;17.67;;;2.30;;
5458;SDS011;2752;49.992;8.422;2022-11-02T15:29:26;14.70;;;3.20;;
5458;SDS011;2752;49.992;8.422;2022-11-02T15:31:58;13.53;;;2.93;;
5458;SDS011;2752;49.992;8.422;2022-11-02T15:34:29;9.97;;;2.90;;
5458;SDS011;2752;49.992;8.422;2022-11-02T15:37:00;11.43;;;3.53;;
5458;SDS011;2752;49.992;8.422;2022-11-02T15:39:27;13.10;;;3.20;;
5458;SDS011;2752;49.992;8.422;2022-11-02T15:42:00;16.50;;;2.90;;
5458;SDS011;2752;49.992;8.422;2022-11-02T15:47:30;11.73;;;4.20;;